YTZ weather

Billy Bishop Toronto City Centre Airport
Toronto, Ontario, Canada

Public forecast

Using degrees Celsius for public forecast. Weather courtesy of forecast.io.

METAR (pilot weather report)

Retrieved 2019/01/17 17:00 UTC (27 minutes ago):

CYTZ 171700Z AUTO 13006KT 9SM OVC027 M05/M11 A3030 RMK SLP266

TAF (pilot weather forecast)

Retrieved 2019/01/17 14:44 UTC (3 hours ago):

TAF CYTZ 171338Z 1714/1814 07010KT P6SM FEW025 SCT140 TEMPO 1715/1718 BKN020 FM171800 08012KT P6SM SCT020 BKN120 BKN180 TEMPO 1718/1803 BKN020 OVC120 FM180300 09008KT 4SM -SN OVC020 FM180600 VRB03KT 2SM -SN -FZDZ BR OVC012 FM181100 29006KT P6SM OVC020 RMK FCST BASED ON AUTO OBS. NXT FCST BY 172000Z